Time;durP1;ratioP1;P1;durP2;ratioP2;P2;SDS_P1;SDS_P2;PMS_P1;PMS_P2;Temp;Humidity;BMP_temperature;BMP_pressure;BME280_temperature;BME280_humidity;BME280_pressure;Samples;Min_cycle;Max_cycle;Signal;HPM_P1;HPM_P2
2021/03/02 00:01:21;;;;;;;4.40;3.67;;;;;;;-0.35;62.82;101860.34;4975078;28;20065;-78
2021/03/02 00:03:48;;;;;;;5.95;3.85;;;;;;;-0.93;62.55;101762.53;4974051;28;20021;-77
2021/03/02 00:06:18;;;;;;;4.60;3.78;;;;;;;0.66;63.26;102042.03;4976679;28;20566;-77
2021/03/02 00:08:45;;;;;;;4.30;3.88;;;;;;;0.49;62.58;101996.50;4991880;28;20029;-77
2021/03/02 00:11:13;;;;;;;4.63;3.58;;;;;;;1.12;61.97;102067.59;4983306;28;20491;-76
2021/03/02 00:13:40;;;;;;;2.67;2.47;;;;;;;0.12;61.55;101922.88;4972323;28;20515;-76
2021/03/02 00:16:08;;;;;;;7.57;4.38;;;;;;;0.35;62.65;101968.75;4972382;28;20384;-78
2021/03/02 00:18:42;;;;;;;4.25;2.67;;;;;;;0.61;60.93;101968.03;4979046;28;20026;-77
2021/03/02 00:21:17;;;;;;;5.78;3.28;;;;;;;0.48;61.75;102011.16;4991227;28;20077;-78
2021/03/02 00:23:52;;;;;;;5.53;3.92;;;;;;;0.47;62.04;102025.78;4991874;28;20033;-78
2021/03/02 00:26:21;;;;;;;2.90;2.47;;;;;;;0.67;62.12;102054.63;4979896;28;20050;-78
2021/03/02 00:28:51;;;;;;;9.15;4.30;;;;;;;1.25;61.59;102121.78;4972223;28;20436;-77
2021/03/02 00:31:18;;;;;;;5.60;3.38;;;;;;;0.22;61.75;101941.88;4968597;28;20029;-77
2021/03/02 00:33:48;;;;;;;8.52;3.13;;;;;;;1.11;61.13;102088.53;4991394;28;20034;-77
2021/03/02 00:36:15;;;;;;;5.10;4.57;;;;;;;1.12;61.35;102045.75;4972410;28;20030;-80
2021/03/02 00:38:42;;;;;;;6.68;3.88;;;;;;;1.56;61.61;102088.63;4972053;28;20035;-77
2021/03/02 00:41:09;;;;;;;5.05;3.65;;;;;;;1.73;59.89;102125.97;4971688;28;20081;-75
2021/03/02 00:43:36;;;;;;;5.57;3.35;;;;;;;1.35;60.10;102074.28;4954640;28;20798;-77
2021/03/02 00:46:03;;;;;;;4.90;3.28;;;;;;;0.46;60.79;101950.50;4961940;28;20091;-77
2021/03/02 00:48:30;;;;;;;7.20;3.05;;;;;;;1.07;60.21;102054.41;4981892;28;20062;-77
2021/03/02 00:50:57;;;;;;;6.07;3.22;;;;;;;0.65;61.05;102020.38;4971772;28;20030;-77
2021/03/02 00:53:24;;;;;;;7.10;3.47;;;;;;;0.87;61.11;102016.34;4973735;28;20034;-75
2021/03/02 00:55:51;;;;;;;7.03;3.55;;;;;;;1.70;60.58;102125.44;4973055;28;20109;-78
2021/03/02 00:58:18;;;;;;;4.60;3.30;;;;;;;1.68;59.52;102119.28;4970933;28;20054;-77
2021/03/02 01:00:45;;;;;;;4.78;3.10;;;;;;;1.15;60.26;102081.78;4971441;28;20038;-77
2021/03/02 01:03:12;;;;;;;4.90;3.17;;;;;;;1.44;60.51;102121.63;4971516;28;20023;-78
2021/03/02 01:05:39;;;;;;;6.30;3.00;;;;;;;1.75;60.72;102132.16;4971712;28;20151;-75
2021/03/02 01:08:06;;;;;;;4.03;2.70;;;;;;;0.98;59.28;101978.94;4971994;28;20050;-76
2021/03/02 01:10:33;;;;;;;6.70;4.20;;;;;;;2.18;58.67;102156.03;4985001;28;20022;-76
2021/03/02 01:13:00;;;;;;;3.63;2.92;;;;;;;1.22;58.59;102011.94;4991206;28;20022;-76
2021/03/02 01:15:27;;;;;;;2.97;2.35;;;;;;;2.11;59.56;102165.88;4973524;28;20026;-76
2021/03/02 01:17:54;;;;;;;3.20;2.70;;;;;;;1.57;59.32;102093.06;4990988;28;20388;-76
2021/03/02 01:20:21;;;;;;;6.38;3.22;;;;;;;2.08;58.50;102156.13;4972467;28;20031;-77
2021/03/02 01:22:51;;;;;;;3.00;2.45;;;;;;;1.72;59.12;102107.03;4981786;28;20056;-77
2021/03/02 01:25:20;;;;;;;3.78;3.08;;;;;;;1.32;59.86;102120.13;4991313;28;20023;-79
2021/03/02 01:27:47;;;;;;;4.70;2.67;;;;;;;1.14;59.69;102087.38;4990773;28;20072;-77
2021/03/02 01:30:16;;;;;;;5.47;3.05;;;;;;;0.37;59.83;101971.34;4991092;28;20545;-77
2021/03/02 01:32:43;;;;;;;5.22;3.10;;;;;;;1.71;60.16;102163.50;4990752;28;20026;-77
2021/03/02 01:35:12;;;;;;;10.18;3.40;;;;;;;1.66;59.96;102113.97;4976354;28;20388;-78
2021/03/02 01:37:39;;;;;;;4.53;2.92;;;;;;;1.92;60.54;102159.59;4979422;28;20475;-79
2021/03/02 01:40:15;;;;;;;4.68;2.70;;;;;;;2.17;59.64;102154.34;4990767;28;20026;-77
2021/03/02 01:42:43;;;;;;;4.28;2.78;;;;;;;1.84;59.71;102170.47;4986837;28;20210;-77
2021/03/02 01:45:15;;;;;;;5.78;3.10;;;;;;;1.85;58.42;102117.56;4954165;28;20518;-77
2021/03/02 01:47:43;;;;;;;5.03;3.22;;;;;;;2.18;58.04;102177.91;4971513;28;20063;-78
2021/03/02 01:50:11;;;;;;;4.70;2.97;;;;;;;2.22;58.25;102156.56;4971154;28;20089;-81
2021/03/02 01:52:39;;;;;;;5.65;3.05;;;;;;;2.50;57.65;102176.41;4985618;28;20101;-76
2021/03/02 01:55:07;;;;;;;6.53;3.10;;;;;;;2.33;57.55;102118.06;4973265;28;20034;-77
2021/03/02 01:57:35;;;;;;;9.10;4.00;;;;;;;2.49;57.56;102103.63;4974127;28;20046;-77
2021/03/02 02:00:11;;;;;;;9.52;5.38;;;;;;;2.80;57.95;102165.97;4974906;28;20033;-76
2021/03/02 02:02:59;;;;;;;5.00;3.47;;;;;;;1.17;60.14;102003.34;4975180;28;20034;-77
2021/03/02 02:05:32;;;;;;;4.50;3.85;;;;;;;1.84;61.00;102115.84;4976619;28;20087;-76
2021/03/02 02:08:04;;;;;;;5.55;4.47;;;;;;;2.29;60.26;102168.59;4974830;28;20022;-78
2021/03/02 02:10:38;;;;;;;7.45;4.38;;;;;;;1.96;59.94;102068.13;4977627;28;20113;-78
2021/03/02 02:13:10;;;;;;;5.15;4.30;;;;;;;2.39;60.05;102157.56;4990956;28;20007;-77
2021/03/02 02:15:39;;;;;;;4.68;3.75;;;;;;;3.03;60.33;102168.13;4975029;28;20023;-77
2021/03/02 02:18:17;;;;;;;6.80;3.63;;;;;;;3.15;58.52;102174.16;4974787;28;20030;-77
2021/03/02 02:21:14;;;;;;;9.88;3.55;;;;;;;2.86;59.14;102172.69;4992132;28;20034;-76
2021/03/02 02:23:55;;;;;;;5.50;4.47;;;;;;;2.59;61.26;102174.59;4989545;28;20428;-76
2021/03/02 02:26:43;;;;;;;8.20;4.03;;;;;;;2.48;59.97;102200.31;4986898;28;20023;-77
2021/03/02 02:29:16;;;;;;;4.32;3.45;;;;;;;2.07;60.05;102074.34;4986446;28;20469;-77
2021/03/02 02:31:45;;;;;;;4.60;4.05;;;;;;;2.63;60.30;102147.78;4974274;28;20039;-76
2021/03/02 02:34:16;;;;;;;7.47;3.20;;;;;;;2.33;60.75;102105.25;4974549;28;20086;-75
2021/03/02 02:36:50;;;;;;;5.68;3.60;;;;;;;3.04;60.21;102182.69;4974146;28;20130;-77
2021/03/02 02:39:19;;;;;;;7.47;3.63;;;;;;;1.65;59.26;101981.19;4974380;28;20070;-77
2021/03/02 02:41:48;;;;;;;11.80;3.85;;;;;;;3.21;58.84;102183.63;4987767;28;20122;-76
2021/03/02 02:44:17;;;;;;;3.33;2.38;;;;;;;3.50;57.78;102199.63;4974198;28;20472;-78
2021/03/02 02:46:46;;;;;;;4.05;2.92;;;;;;;3.03;57.82;102192.75;4977002;28;20085;-77
2021/03/02 02:49:14;;;;;;;5.40;3.30;;;;;;;3.37;57.83;102213.78;4978637;28;20030;-75
2021/03/02 02:51:41;;;;;;;7.88;3.25;;;;;;;3.14;57.40;102180.66;4974192;28;20038;-76
2021/03/02 02:54:10;;;;;;;8.05;3.45;;;;;;;2.53;57.75;102094.06;4968891;28;20433;-78
2021/03/02 02:56:42;;;;;;;5.60;3.20;;;;;;;3.07;56.77;102114.81;4972506;28;20393;-77
2021/03/02 02:59:22;;;;;;;3.42;2.95;;;;;;;2.93;58.32;102213.94;4984316;28;20042;-77
2021/03/02 03:01:58;;;;;;;6.00;2.92;;;;;;;3.25;57.70;102183.13;4988755;28;20023;-76
2021/03/02 03:04:36;;;;;;;4.60;3.33;;;;;;;2.76;55.64;102070.75;4956303;28;20396;-75
2021/03/02 03:07:08;;;;;;;5.60;3.05;;;;;;;2.50;55.59;102020.56;4987339;28;20096;-77
2021/03/02 03:09:38;;;;;;;3.40;2.97;;;;;;;3.50;55.02;102183.19;4993292;28;20022;-78
2021/03/02 03:12:06;;;;;;;3.85;3.10;;;;;;;3.38;55.63;102168.94;4979916;28;20034;-78
2021/03/02 03:14:40;;;;;;;3.70;3.22;;;;;;;2.92;56.41;102152.03;4987253;28;20033;-77
2021/03/02 03:17:11;;;;;;;4.20;3.80;;;;;;;3.60;56.26;102196.72;4973512;28;20031;-76
2021/03/02 03:19:39;;;;;;;9.43;4.93;;;;;;;3.60;55.03;102188.50;4978733;28;20503;-76
2021/03/02 03:22:07;;;;;;;10.85;5.32;;;;;;;3.95;54.71;102194.75;4992868;28;20010;-77
2021/03/02 03:24:35;;;;;;;5.85;4.95;;;;;;;3.55;55.16;102185.41;4975270;28;20034;-76
2021/03/02 03:27:03;;;;;;;8.07;5.60;;;;;;;2.84;55.97;102096.25;4975559;28;20027;-75
2021/03/02 03:29:31;;;;;;;6.60;5.55;;;;;;;3.68;54.71;102201.34;4979056;28;20027;-76
2021/03/02 03:31:59;;;;;;;8.25;6.70;;;;;;;2.89;56.19;102105.88;4992584;28;20130;-77
2021/03/02 03:34:27;;;;;;;8.95;5.63;;;;;;;1.82;56.52;101902.09;4977968;28;20011;-77
2021/03/02 03:36:56;;;;;;;6.70;4.65;;;;;;;3.28;56.78;102133.50;4973141;28;20136;-76
2021/03/02 03:39:23;;;;;;;9.32;4.72;;;;;;;3.73;55.77;102174.31;4955803;28;20181;-77
2021/03/02 03:41:50;;;;;;;7.43;6.40;;;;;;;3.94;56.50;102183.94;4973099;28;20408;-78
2021/03/02 03:44:17;;;;;;;10.30;5.60;;;;;;;3.08;56.69;102063.69;4987573;28;20149;-77
2021/03/02 03:46:44;;;;;;;6.78;5.82;;;;;;;3.03;56.70;102083.31;4972994;28;20034;-78
2021/03/02 03:49:11;;;;;;;7.70;5.55;;;;;;;3.67;56.73;102172.25;4973267;28;20045;-76
2021/03/02 03:51:39;;;;;;;10.63;5.90;;;;;;;2.94;56.28;102056.97;4971521;28;20034;-76
2021/03/02 03:54:08;;;;;;;8.68;7.03;;;;;;;3.47;56.71;102095.91;4968755;28;20388;-76
2021/03/02 03:56:35;;;;;;;8.82;5.20;;;;;;;3.83;55.12;102171.44;4973368;28;20031;-77
2021/03/02 03:59:05;;;;;;;8.00;5.70;;;;;;;3.52;55.31;102120.03;4972485;28;20039;-76
2021/03/02 04:01:33;;;;;;;8.30;5.33;;;;;;;3.18;55.85;102064.38;4972746;28;20042;-76
2021/03/02 04:04:01;;;;;;;8.88;5.78;;;;;;;3.63;55.29;102096.94;4986146;28;20388;-76
2021/03/02 04:06:29;;;;;;;8.40;5.45;;;;;;;4.14;54.46;102192.66;4983568;28;20035;-76
2021/03/02 04:08:57;;;;;;;6.65;5.45;;;;;;;3.19;55.07;102101.66;4974259;28;20030;-77
2021/03/02 04:11:24;;;;;;;6.97;4.97;;;;;;;3.85;55.12;102204.97;4992140;28;20035;-78
2021/03/02 04:13:51;;;;;;;13.52;6.45;;;;;;;2.08;55.17;101925.78;4987193;28;20031;-77
2021/03/02 04:16:18;;;;;;;13.23;7.65;;;;;;;3.79;55.47;102208.41;4982671;28;20030;-76
2021/03/02 04:18:45;;;;;;;8.98;6.18;;;;;;;3.61;54.31;102129.97;4977669;28;20460;-77
2021/03/02 04:21:12;;;;;;;12.15;7.10;;;;;;;2.98;55.70;102023.63;4974332;28;20085;-77
2021/03/02 04:23:40;;;;;;;7.82;5.55;;;;;;;3.04;56.37;102078.72;4991647;28;20030;-77
2021/03/02 04:26:07;;;;;;;8.02;6.47;;;;;;;3.14;56.04;102145.97;4992303;28;20026;-76
2021/03/02 04:28:34;;;;;;;7.43;5.50;;;;;;;3.63;56.79;102155.28;4991752;28;20034;-76
2021/03/02 04:31:01;;;;;;;8.02;5.70;;;;;;;3.49;54.88;102117.63;4979889;28;20176;-77
2021/03/02 04:33:28;;;;;;;9.35;7.35;;;;;;;3.75;55.41;102153.09;4972083;28;20078;-77
2021/03/02 04:35:55;;;;;;;7.35;5.28;;;;;;;3.14;54.40;102054.78;4977303;28;20085;-77
2021/03/02 04:38:22;;;;;;;7.78;5.75;;;;;;;3.15;55.24;102064.69;4990066;28;20391;-77
2021/03/02 04:40:49;;;;;;;10.95;5.75;;;;;;;3.93;56.05;102177.59;4972178;28;20031;-75
2021/03/02 04:43:16;;;;;;;10.80;6.38;;;;;;;3.75;53.17;102138.53;4972269;28;20030;-77
2021/03/02 04:45:43;;;;;;;9.50;6.30;;;;;;;3.73;55.03;102099.53;4979266;28;20022;-76
2021/03/02 04:48:10;;;;;;;6.93;5.95;;;;;;;3.86;55.53;102127.22;4972690;28;20093;-77
2021/03/02 04:50:37;;;;;;;6.32;5.45;;;;;;;4.58;54.62;102185.94;4965709;28;20089;-78
2021/03/02 04:53:04;;;;;;;8.45;5.88;;;;;;;4.85;53.72;102185.69;4971619;28;20041;-78
2021/03/02 04:55:31;;;;;;;7.55;4.70;;;;;;;4.38;52.41;102179.97;4980475;28;20026;-76
2021/03/02 04:57:58;;;;;;;5.97;5.13;;;;;;;3.34;53.27;102076.38;4991521;28;20147;-77
2021/03/02 05:00:25;;;;;;;9.50;5.68;;;;;;;4.22;52.20;102187.19;4961411;28;20027;-77
2021/03/02 05:02:52;;;;;;;8.85;6.05;;;;;;;3.32;52.50;102059.28;4986819;28;20444;-78
2021/03/02 05:05:19;;;;;;;9.07;5.95;;;;;;;3.96;53.06;102138.03;4991081;28;20498;-77
2021/03/02 05:07:46;;;;;;;6.65;5.22;;;;;;;3.79;54.09;102093.31;4990197;28;20435;-76
2021/03/02 05:10:15;;;;;;;6.25;4.78;;;;;;;4.09;52.42;102123.78;4973331;28;20018;-76
2021/03/02 05:12:42;;;;;;;8.68;5.70;;;;;;;4.05;52.17;102116.97;4991155;28;20052;-78
2021/03/02 05:15:10;;;;;;;7.45;5.55;;;;;;;3.84;53.29;102167.66;4991031;28;20030;-77
2021/03/02 05:17:37;;;;;;;6.25;4.55;;;;;;;3.74;53.59;102112.19;4976608;28;20058;-76
2021/03/02 05:20:05;;;;;;;8.40;4.60;;;;;;;3.92;51.30;102139.41;4971651;28;20423;-76
2021/03/02 05:22:33;;;;;;;10.23;4.72;;;;;;;4.10;52.32;102194.91;4971305;28;20108;-76
2021/03/02 05:25:00;;;;;;;4.55;3.90;;;;;;;3.10;52.08;102072.56;4971578;28;20142;-77
2021/03/02 05:27:27;;;;;;;6.75;4.38;;;;;;;3.67;50.77;102132.03;4972792;28;20034;-76
2021/03/02 05:29:54;;;;;;;6.78;4.30;;;;;;;2.20;50.31;101902.59;4995087;28;20030;-76
2021/03/02 05:32:21;;;;;;;10.95;4.40;;;;;;;2.57;50.74;101964.19;4995028;28;20031;-74
2021/03/02 05:34:48;;;;;;;8.63;5.00;;;;;;;3.99;50.47;102213.56;4979155;28;20034;-77
2021/03/02 05:37:15;;;;;;;6.15;5.07;;;;;;;3.65;49.52;102125.88;4975157;28;20118;-76
2021/03/02 05:39:42;;;;;;;7.40;4.80;;;;;;;3.58;50.25;102105.66;4975003;28;20031;-76
2021/03/02 05:42:09;;;;;;;11.75;4.65;;;;;;;4.44;50.31;102231.38;4973958;28;20026;-76
2021/03/02 05:44:36;;;;;;;7.93;4.32;;;;;;;4.20;49.84;102170.06;4972031;28;20399;-77
2021/03/02 05:47:04;;;;;;;6.82;5.15;;;;;;;4.31;51.29;102209.13;4968124;28;20087;-76
2021/03/02 05:49:32;;;;;;;6.22;5.00;;;;;;;4.41;50.76;102163.19;4974063;28;20503;-76
2021/03/02 05:51:59;;;;;;;4.80;3.80;;;;;;;3.11;51.27;101956.59;4978097;28;20068;-77
2021/03/02 05:54:27;;;;;;;6.28;4.82;;;;;;;4.65;50.87;102219.03;4986779;28;20121;-76
2021/03/02 05:56:54;;;;;;;7.00;4.63;;;;;;;4.02;50.84;102141.97;4975466;28;20061;-75
2021/03/02 05:59:21;;;;;;;4.25;3.75;;;;;;;4.12;50.15;102142.66;4984869;28;20022;-75
2021/03/02 06:01:49;;;;;;;7.13;3.75;;;;;;;3.57;50.15;102062.88;4994726;28;20106;-76
2021/03/02 06:04:16;;;;;;;3.95;3.42;;;;;;;3.86;50.60;102120.91;4988700;28;20039;-77
2021/03/02 06:06:44;;;;;;;8.38;4.07;;;;;;;4.16;51.05;102152.22;4977134;28;20395;-76
2021/03/02 06:09:11;;;;;;;7.05;4.72;;;;;;;4.76;49.11;102221.41;4989520;28;20085;-76
2021/03/02 06:11:38;;;;;;;5.18;3.72;;;;;;;4.67;49.47;102178.56;4985243;28;20449;-78
2021/03/02 06:14:25;;;;;;;7.68;3.92;;;;;;;4.88;48.18;102229.28;4977529;28;20388;-77
2021/03/02 06:16:53;;;;;;;6.43;4.13;;;;;;;3.31;48.42;102036.50;4974543;28;20067;-77
2021/03/02 06:19:38;;;;;;;6.25;3.88;;;;;;;4.28;47.84;102226.75;4991749;28;20126;-75
2021/03/02 06:22:05;;;;;;;8.07;3.50;;;;;;;4.23;46.74;102169.69;4994026;28;20409;-75
2021/03/02 06:24:42;;;;;;;4.40;3.40;;;;;;;3.96;46.66;102141.63;4993980;28;20030;-77
2021/03/02 06:27:13;;;;;;;3.85;3.20;;;;;;;4.70;47.43;102246.78;4962568;28;20365;-75
2021/03/02 06:29:41;;;;;;;7.63;4.22;;;;;;;4.56;47.05;102211.84;4987906;28;20117;-75
2021/03/02 06:32:09;;;;;;;7.15;4.10;;;;;;;4.35;48.17;102161.13;4974136;28;20029;-76
2021/03/02 06:34:36;;;;;;;6.78;4.38;;;;;;;4.52;47.28;102186.66;4986413;28;20487;-76
2021/03/02 06:37:06;;;;;;;8.35;4.25;;;;;;;3.60;46.57;102078.97;4993804;28;20022;-78
2021/03/02 06:39:41;;;;;;;10.02;5.00;;;;;;;4.94;47.30;102264.25;4993267;28;20105;-76
2021/03/02 06:42:22;;;;;;;6.82;4.20;;;;;;;4.83;46.71;102270.09;4973875;28;20027;-78
2021/03/02 06:44:51;;;;;;;5.65;4.43;;;;;;;4.54;48.42;102286.06;4968687;28;20030;-76
2021/03/02 06:47:35;;;;;;;6.68;3.20;;;;;;;4.46;47.42;102289.66;4974631;28;20042;-76
2021/03/02 06:50:21;;;;;;;5.03;3.47;;;;;;;3.78;46.94;102155.50;4982477;28;20041;-76
2021/03/02 06:52:48;;;;;;;7.07;3.72;;;;;;;4.47;46.79;102230.19;4978463;28;20026;-76
2021/03/02 06:55:17;;;;;;;6.82;4.25;;;;;;;4.81;46.40;102285.88;4974325;28;20030;-77
2021/03/02 06:57:49;;;;;;;5.38;3.67;;;;;;;4.57;46.45;102271.16;4988042;28;20054;-76
2021/03/02 07:00:30;;;;;;;12.10;3.60;;;;;;;4.56;46.21;102258.50;4974083;28;20124;-78
2021/03/02 07:02:57;;;;;;;3.60;3.22;;;;;;;4.05;47.19;102196.44;4978937;28;20028;-78
2021/03/02 07:05:24;;;;;;;9.27;3.35;;;;;;;4.51;45.86;102229.69;4992846;28;20069;-79
2021/03/02 07:07:55;;;;;;;7.28;2.65;;;;;;;4.65;47.04;102287.63;4984500;28;20030;-77
2021/03/02 07:10:24;;;;;;;4.05;3.65;;;;;;;3.89;48.75;102214.59;4957421;28;20089;-86
2021/03/02 07:12:55;;;;;;;7.05;3.63;;;;;;;4.08;49.69;102246.31;4976050;28;20086;-87
2021/03/02 07:15:24;;;;;;;4.10;3.10;;;;;;;3.39;50.40;102132.31;4961726;28;20113;-88
2021/03/02 07:17:54;;;;;;;3.75;2.90;;;;;;;4.43;50.39;102281.78;4965593;28;20042;-80
2021/03/02 07:20:24;;;;;;;11.07;3.30;;;;;;;4.64;51.58;102296.88;4983001;28;20033;-79
2021/03/02 07:22:53;;;;;;;;;;;;;;;4.33;57.29;102301.16;4961816;28;20054;-82
2021/03/02 07:25:22;;;;;;;5.97;3.80;;;;;;;2.40;60.71;102060.84;4974596;28;19910;-78
2021/03/02 07:27:53;;;;;;;3.65;3.33;;;;;;;2.23;60.12;102029.84;4990693;28;20101;-80
2021/03/02 07:30:20;;;;;;;9.32;4.75;;;;;;;3.57;61.75;102251.84;4982155;28;20154;-80
2021/03/02 07:32:48;;;;;;;8.25;3.83;;;;;;;3.54;62.06;102243.94;4974202;28;20038;-81
2021/03/02 07:35:21;;;;;;;4.47;3.38;;;;;;;3.68;62.89;102276.19;4974367;28;20435;-79
2021/03/02 07:37:48;;;;;;;5.28;3.25;;;;;;;3.13;62.56;102185.31;4978304;28;20177;-80
2021/03/02 07:40:18;;;;;;;4.22;3.75;;;;;;;2.11;63.87;102067.53;4977246;28;20042;-83
2021/03/02 07:42:45;;;;;;;9.27;3.70;;;;;;;3.19;64.48;102251.34;4956699;28;20049;-83
2021/03/02 07:45:17;;;;;;;7.65;4.28;;;;;;;2.33;63.06;102061.50;4985220;28;20557;-80
2021/03/02 07:48:01;;;;;;;10.07;3.97;;;;;;;3.65;63.69;102265.56;4985179;28;20041;-81
2021/03/02 07:50:30;;;;;;;6.85;4.45;;;;;;;3.15;64.51;102199.66;4970448;28;20035;-79
2021/03/02 07:53:20;;;;;;;8.13;3.70;;;;;;;3.39;64.32;102282.06;4963773;28;20035;-79
2021/03/02 07:56:08;;;;;;;6.38;3.85;;;;;;;3.18;64.94;102249.63;4971037;28;20038;-81
2021/03/02 07:58:35;;;;;;;5.78;3.60;;;;;;;3.00;64.41;102168.47;4975959;28;20058;-81
2021/03/02 08:01:21;;;;;;;9.18;4.53;;;;;;;3.60;65.07;102308.16;4976276;28;20034;-81
2021/03/02 08:03:49;;;;;;;4.00;3.53;;;;;;;2.85;65.83;102223.81;4973086;28;20050;-83
2021/03/02 08:06:31;;;;;;;7.43;4.38;;;;;;;3.50;66.32;102320.09;4973237;28;20472;-83
2021/03/02 08:08:58;;;;;;;7.35;3.60;;;;;;;3.70;65.64;102320.69;4960308;28;20117;-81
2021/03/02 08:11:33;;;;;;;8.32;5.05;;;;;;;3.14;65.26;102257.31;4986366;28;20109;-81
2021/03/02 08:14:22;;;;;;;7.40;4.93;;;;;;;2.01;65.11;102073.09;4966114;28;20038;-81
2021/03/02 08:17:07;;;;;;;6.68;4.60;;;;;;;3.40;64.50;102324.88;4963874;28;20536;-80
2021/03/02 08:19:43;;;;;;;7.82;4.43;;;;;;;2.64;64.39;102177.72;4973183;28;20030;-82
2021/03/02 08:22:23;;;;;;;7.40;4.93;;;;;;;3.56;65.37;102335.88;4955798;28;20035;-84
2021/03/02 08:24:56;;;;;;;7.43;4.65;;;;;;;2.73;65.90;102249.72;4962358;28;20038;-84
2021/03/02 08:27:58;;;;;;;5.85;4.32;;;;;;;3.22;66.90;102355.03;4956719;28;20394;-86
2021/03/02 08:30:33;;;;;;;13.10;6.30;;;;;;;3.33;68.58;102360.22;4975752;28;20184;-88
2021/03/02 08:33:04;;;;;;;11.18;5.93;;;;;;;3.18;68.92;102365.44;4961252;28;20035;-81
2021/03/02 08:35:34;;;;;;;15.73;7.63;;;;;;;2.37;69.47;102263.47;4977416;28;20077;-80
2021/03/02 08:38:05;;;;;;;;;;;;;;;3.27;68.28;102356.25;4966734;28;20121;-81
2021/03/02 08:40:32;;;;;;;12.30;6.93;;;;;;;2.98;68.86;102359.34;4970820;28;20367;-79
2021/03/02 08:43:10;;;;;;;11.60;7.22;;;;;;;2.38;69.41;102270.66;4993203;28;20109;-83
2021/03/02 08:45:43;;;;;;;10.68;6.97;;;;;;;2.79;69.41;102365.84;4981719;28;20026;-82
2021/03/02 08:48:14;;;;;;;14.95;8.05;;;;;;;1.98;69.99;102232.75;4971335;28;20027;-81
2021/03/02 08:50:42;;;;;;;12.25;8.00;;;;;;;2.05;70.28;102254.81;4960841;28;20030;-81
2021/03/02 08:53:34;;;;;;;13.85;8.13;;;;;;;2.14;71.27;102302.22;4985413;28;20034;-79
2021/03/02 08:56:04;;;;;;;14.10;9.75;;;;;;;2.57;70.45;102352.50;4936936;28;20444;-81
2021/03/02 08:58:30;;;;;;;;;;;;;;;2.81;69.29;102356.47;4966180;28;20043;-81
2021/03/02 09:01:18;;;;;;;15.90;9.55;;;;;;;2.43;69.87;102314.75;4956433;28;19989;-82
2021/03/02 09:03:47;;;;;;;16.15;10.45;;;;;;;2.52;70.64;102371.25;4966778;28;20038;-81
2021/03/02 09:06:26;;;;;;;15.30;8.95;;;;;;;2.46;70.76;102385.56;4982990;28;20027;-80
2021/03/02 09:08:56;;;;;;;15.02;10.43;;;;;;;2.35;71.55;102389.38;4976271;28;20439;-80
2021/03/02 09:11:30;;;;;;;16.88;11.32;;;;;;;2.16;71.75;102350.25;4984795;28;20027;-78
2021/03/02 09:14:04;;;;;;;17.85;12.55;;;;;;;2.45;71.29;102390.16;4968038;28;20043;-82
2021/03/02 09:16:40;;;;;;;17.00;10.38;;;;;;;1.87;70.68;102291.19;4964451;28;20035;-81
2021/03/02 09:19:14;;;;;;;15.02;9.57;;;;;;;1.69;70.53;102268.44;4961327;28;20049;-85
2021/03/02 09:21:50;;;;;;;17.65;9.80;;;;;;;2.29;71.41;102414.59;4969822;28;20017;-88
2021/03/02 09:24:22;;;;;;;11.02;9.80;;;;;;;2.10;72.22;102421.03;4960572;28;20121;-84
2021/03/02 09:26:52;;;;;;;15.05;10.38;;;;;;;1.63;72.45;102360.03;4982865;28;20061;-90
2021/03/02 09:29:20;;;;;;;17.67;11.48;;;;;;;0.56;72.88;102169.34;4958527;28;20066;-87
2021/03/02 09:31:49;;;;;;;17.52;8.88;;;;;;;1.89;71.88;102405.75;4946977;28;20047;-88
2021/03/02 09:34:16;;;;;;;18.52;11.68;;;;;;;2.26;71.98;102436.75;4953768;28;20091;-85
2021/03/02 09:36:44;;;;;;;14.88;10.23;;;;;;;1.17;72.75;102288.94;4970597;28;20015;-87
2021/03/02 09:39:21;;;;;;;17.77;10.88;;;;;;;1.88;73.09;102402.16;4961291;28;20065;-87
2021/03/02 09:41:49;;;;;;;16.60;10.30;;;;;;;2.03;73.65;102442.63;4958177;28;20066;-85
2021/03/02 09:44:21;;;;;;;17.45;10.18;;;;;;;1.19;73.39;102317.81;4965611;28;20034;-88
2021/03/02 09:46:49;;;;;;;19.17;11.18;;;;;;;1.44;74.50;102378.22;4947419;28;20035;-88
2021/03/02 09:49:34;;;;;;;16.58;10.23;;;;;;;1.89;74.42;102441.25;4948954;28;20035;-85
2021/03/02 09:52:03;;;;;;;17.85;11.25;;;;;;;1.89;74.98;102463.97;4957050;28;20580;-86
2021/03/02 09:54:30;;;;;;;22.10;12.05;;;;;;;0.34;75.12;102181.41;4946968;28;20039;-84
2021/03/02 09:56:59;;;;;;;14.25;10.27;;;;;;;1.71;75.10;102425.66;4954659;28;20129;-88
2021/03/02 09:59:26;;;;;;;18.73;10.65;;;;;;;0.61;74.68;102221.53;4951515;28;20109;-81
2021/03/02 10:01:54;;;;;;;16.48;10.05;;;;;;;2.20;74.95;102454.59;4962415;28;20121;-81
2021/03/02 10:04:22;;;;;;;22.80;12.18;;;;;;;1.94;75.13;102440.78;4984329;28;20113;-80
2021/03/02 10:06:49;;;;;;;15.50;10.25;;;;;;;2.14;75.08;102457.97;4972679;28;20072;-79
2021/03/02 10:09:26;;;;;;;16.60;9.00;;;;;;;0.65;75.42;102225.69;4960444;28;20062;-82
2021/03/02 10:12:13;;;;;;;20.98;10.38;;;;;;;1.23;75.29;102316.50;4970496;28;20034;-83
2021/03/02 10:14:42;;;;;;;16.80;10.50;;;;;;;1.94;76.08;102452.59;4978292;28;20041;-79
2021/03/02 10:17:10;;;;;;;15.40;8.63;;;;;;;0.19;76.21;102165.56;4974176;28;20038;-83
2021/03/02 10:19:38;;;;;;;19.95;10.38;;;;;;;1.45;75.97;102363.56;4976618;28;20113;-80
2021/03/02 10:22:14;;;;;;;24.27;11.63;;;;;;;2.20;75.57;102495.59;4965010;28;20106;-79
2021/03/02 10:24:42;;;;;;;16.77;10.20;;;;;;;2.33;75.76;102455.13;4975496;28;20507;-83
2021/03/02 10:27:17;;;;;;;20.00;10.48;;;;;;;2.32;75.01;102469.81;4988388;28;20026;-80
2021/03/02 10:29:48;;;;;;;15.43;10.43;;;;;;;1.17;75.42;102321.69;4984038;28;20038;-81
2021/03/02 10:32:16;;;;;;;16.35;10.02;;;;;;;1.64;75.36;102410.88;4970356;28;20026;-81
2021/03/02 10:34:44;;;;;;;15.35;10.60;;;;;;;1.53;74.91;102370.97;4973326;28;20560;-79
2021/03/02 10:37:13;;;;;;;14.68;10.07;;;;;;;1.72;74.95;102440.19;4970609;28;20035;-78
2021/03/02 10:39:41;;;;;;;22.73;11.88;;;;;;;2.04;74.91;102464.31;4981866;28;20039;-79
2021/03/02 10:42:11;;;;;;;21.95;9.82;;;;;;;1.43;73.99;102379.19;4982565;28;20370;-80
2021/03/02 10:44:38;;;;;;;18.60;11.02;;;;;;;2.20;74.07;102492.88;4968128;28;20022;-80
2021/03/02 10:47:06;;;;;;;15.50;9.45;;;;;;;1.78;73.34;102391.28;4971457;28;20030;-79
2021/03/02 10:49:33;;;;;;;19.17;10.40;;;;;;;2.18;73.96;102473.91;4979250;28;20017;-78
2021/03/02 10:52:00;;;;;;;15.40;9.80;;;;;;;1.85;73.31;102391.53;4976536;28;20030;-77
2021/03/02 10:54:27;;;;;;;13.95;8.85;;;;;;;0.97;72.71;102241.78;4973874;28;20026;-80
2021/03/02 10:56:54;;;;;;;12.45;9.05;;;;;;;0.43;73.76;102190.59;4974528;28;20030;-79
2021/03/02 10:59:21;;;;;;;15.32;8.65;;;;;;;1.15;73.44;102323.72;4982686;28;20031;-79
2021/03/02 11:01:48;;;;;;;13.85;9.65;;;;;;;1.44;73.28;102360.97;4972087;28;20038;-78
2021/03/02 11:04:15;;;;;;;15.57;9.35;;;;;;;2.31;73.31;102481.75;4977094;28;20025;-80
2021/03/02 11:06:42;;;;;;;14.02;10.43;;;;;;;2.30;72.58;102466.38;4973131;28;20496;-81
2021/03/02 11:09:09;;;;;;;13.73;10.18;;;;;;;1.92;72.19;102378.13;4953762;28;20031;-80
2021/03/02 11:11:36;;;;;;;16.90;9.63;;;;;;;1.61;72.99;102345.66;4973736;28;20034;-79
2021/03/02 11:14:03;;;;;;;11.65;8.95;;;;;;;2.21;73.74;102467.28;4971425;28;20034;-79
2021/03/02 11:16:30;;;;;;;16.02;9.60;;;;;;;1.47;74.62;102350.59;4979875;28;20098;-78
2021/03/02 11:18:58;;;;;;;17.92;10.23;;;;;;;1.63;75.08;102403.72;4974814;28;20041;-80
2021/03/02 11:21:25;;;;;;;14.35;9.73;;;;;;;1.53;74.97;102359.22;4979298;28;20125;-78
2021/03/02 11:23:55;;;;;;;15.43;9.48;;;;;;;1.74;75.44;102430.81;4967498;28;20034;-78
2021/03/02 11:26:26;;;;;;;19.50;8.98;;;;;;;-0.67;74.93;102049.31;4955360;28;20065;-81
2021/03/02 11:28:53;;;;;;;17.15;8.80;;;;;;;1.56;74.92;102392.53;4978382;28;20399;-77
2021/03/02 11:31:20;;;;;;;15.30;9.45;;;;;;;1.82;74.12;102401.88;4974600;28;20018;-79
2021/03/02 11:33:47;;;;;;;14.52;11.32;;;;;;;2.03;73.74;102423.50;4959461;28;20483;-80
2021/03/02 11:36:14;;;;;;;20.95;9.52;;;;;;;2.17;72.64;102433.94;4968425;28;20018;-79
2021/03/02 11:38:41;;;;;;;22.42;11.15;;;;;;;1.35;72.75;102291.75;4952996;28;20035;-79
2021/03/02 11:41:08;;;;;;;15.05;9.52;;;;;;;2.69;72.75;102481.66;4973433;28;22095;-78
2021/03/02 11:43:35;;;;;;;22.67;11.05;;;;;;;2.80;71.94;102479.72;4971110;28;20027;-80